Time;durP1;ratioP1;P1;durP2;ratioP2;P2;SDS_P1;SDS_P2;PMS_P1;PMS_P2;Temp;Humidity;BMP_temperature;BMP_pressure;BME280_temperature;BME280_humidity;BME280_pressure;Samples;Min_cycle;Max_cycle;Signal;HPM_P1;HPM_P2
2021/01/30 00:00:19;;;;;;;11.80;8.10;;;;;;;0.67;70.25;99177.13;684565;28;18293;-64
2021/01/30 00:00:41;;;;;;;12.90;8.05;;;;;;;0.66;70.30;99180.81;683332;28;45613;-64
2021/01/30 00:01:02;;;;;;;12.05;8.05;;;;;;;0.66;70.40;99175.50;683634;28;46449;-59
2021/01/30 00:01:23;;;;;;;12.48;8.00;;;;;;;0.66;70.12;99166.69;683400;28;45284;-63
2021/01/30 00:01:45;;;;;;;13.52;7.82;;;;;;;0.65;70.08;99167.66;681185;29;21027;-62
2021/01/30 00:02:06;;;;;;;11.65;8.05;;;;;;;0.65;70.18;99168.50;681031;29;22028;-61
2021/01/30 00:02:28;;;;;;;11.07;7.78;;;;;;;0.64;70.25;99158.88;682129;28;43340;-64
2021/01/30 00:02:49;;;;;;;10.73;7.82;;;;;;;0.64;70.29;99166.00;683496;28;22410;-63
2021/01/30 00:03:11;;;;;;;12.50;7.72;;;;;;;0.64;70.18;99166.00;684245;28;23181;-61
2021/01/30 00:03:33;;;;;;;11.43;7.72;;;;;;;0.64;70.17;99163.34;684352;28;15768;-64
2021/01/30 00:03:55;;;;;;;10.40;7.60;;;;;;;0.64;70.26;99158.88;684936;28;1284;-64
2021/01/30 00:04:19;;;;;;;12.38;7.57;;;;;;;0.64;70.21;99158.88;685211;28;902;-62
2021/01/30 00:04:40;;;;;;;11.68;7.75;;;;;;;0.65;70.19;99165.00;684434;28;1325;-62
2021/01/30 00:05:02;;;;;;;12.75;7.70;;;;;;;0.62;70.13;99158.16;684365;28;15931;-64
2021/01/30 00:05:24;;;;;;;12.45;8.30;;;;;;;0.64;70.33;99160.66;682962;28;46475;-63
2021/01/30 00:05:46;;;;;;;11.55;8.23;;;;;;;0.63;70.18;99156.38;683384;28;44332;-64
2021/01/30 00:06:07;;;;;;;10.45;7.63;;;;;;;0.62;70.25;99158.16;684646;28;12520;-62
2021/01/30 00:06:28;;;;;;;10.98;7.97;;;;;;;0.64;70.25;99158.00;684420;28;7533;-64
2021/01/30 00:06:50;;;;;;;11.65;7.78;;;;;;;0.62;70.32;99158.16;683424;28;46376;-63
2021/01/30 00:07:11;;;;;;;10.55;7.88;;;;;;;0.63;70.28;99156.38;684260;28;23487;-63
2021/01/30 00:07:32;;;;;;;11.35;8.38;;;;;;;0.62;70.31;99163.47;684170;28;22399;-62
2021/01/30 00:07:53;;;;;;;10.07;7.80;;;;;;;0.62;70.32;99160.81;683713;28;46386;-63
2021/01/30 00:08:16;;;;;;;11.80;8.07;;;;;;;0.63;70.20;99157.19;685133;28;1036;-63
2021/01/30 00:08:38;;;;;;;12.80;8.10;;;;;;;0.63;70.32;99162.50;684397;28;1130;-62
2021/01/30 00:08:59;;;;;;;11.98;8.07;;;;;;;0.63;70.34;99167.00;683739;28;10994;-63
2021/01/30 00:09:21;;;;;;;10.70;8.25;;;;;;;0.62;70.32;99162.66;682019;29;1534;-61
2021/01/30 00:09:43;;;;;;;10.93;8.00;;;;;;;0.62;70.26;99165.31;680449;29;44172;-61
2021/01/30 00:10:05;;;;;;;11.10;7.90;;;;;;;0.62;70.35;99162.66;681514;29;20989;-63
2021/01/30 00:10:26;;;;;;;14.23;8.88;;;;;;;0.60;70.34;99161.97;679906;29;63037;-63
2021/01/30 00:10:48;;;;;;;13.98;8.68;;;;;;;0.58;70.39;99156.81;681353;29;22496;-63
2021/01/30 00:11:09;;;;;;;13.55;8.40;;;;;;;0.58;70.27;99159.47;682202;28;22400;-62
2021/01/30 00:11:31;;;;;;;11.07;7.93;;;;;;;0.60;70.25;99156.66;683626;28;46375;-63
2021/01/30 00:11:55;;;;;;;10.55;7.78;;;;;;;0.60;70.44;99160.16;683333;28;46489;-64
2021/01/30 00:12:16;;;;;;;11.73;8.07;;;;;;;0.59;70.43;99166.44;682860;28;69373;-64
2021/01/30 00:12:37;;;;;;;11.40;7.80;;;;;;;0.59;70.33;99157.66;683763;28;26340;-62
2021/01/30 00:12:59;;;;;;;14.82;8.68;;;;;;;0.56;70.23;99153.47;683720;28;23448;-63
2021/01/30 00:13:20;;;;;;;11.60;8.00;;;;;;;0.59;70.56;99157.66;684138;28;22235;-63
2021/01/30 00:13:42;;;;;;;11.43;8.18;;;;;;;0.58;70.32;99156.81;683440;28;46273;-62
2021/01/30 00:14:03;;;;;;;12.98;8.15;;;;;;;0.58;70.25;99158.63;684413;28;21557;-62
2021/01/30 00:14:26;;;;;;;11.18;8.00;;;;;;;0.58;70.77;99154.16;683503;28;46322;-63
2021/01/30 00:14:47;;;;;;;12.52;8.73;;;;;;;0.58;70.32;99156.81;682530;28;69385;-63
2021/01/30 00:15:10;;;;;;;10.75;8.07;;;;;;;0.59;70.49;99157.66;683945;28;22402;-63
2021/01/30 00:15:31;;;;;;;11.95;7.90;;;;;;;0.57;70.34;99156.97;682276;28;69441;-62
2021/01/30 00:15:52;;;;;;;10.15;7.57;;;;;;;0.57;70.31;99160.44;684511;28;21537;-63
2021/01/30 00:16:14;;;;;;;11.30;8.05;;;;;;;0.58;70.42;99158.63;684222;28;22397;-63
2021/01/30 00:16:35;;;;;;;12.63;8.18;;;;;;;0.58;70.34;99161.28;682011;29;1057;-62
2021/01/30 00:16:57;;;;;;;12.07;7.95;;;;;;;0.57;70.39;99160.44;682188;29;1407;-61
2021/01/30 00:17:19;;;;;;;10.38;7.57;;;;;;;0.56;70.49;99161.44;682358;29;967;-62
2021/01/30 00:17:41;;;;;;;11.68;8.05;;;;;;;0.58;70.45;99170.09;681091;28;21537;-64
2021/01/30 00:18:06;;;;;;;12.45;7.80;;;;;;;0.57;70.38;99168.44;680102;29;61523;-64
2021/01/30 00:18:32;;;;;;;12.93;7.70;;;;;;;0.56;70.39;99163.25;683062;28;61893;-63
2021/01/30 00:18:54;;;;;;;12.23;7.93;;;;;;;0.55;70.24;99159.78;684406;28;22494;-63
2021/01/30 00:19:15;;;;;;;11.23;7.85;;;;;;;0.54;70.38;99166.88;684295;28;21577;-62
2021/01/30 00:19:38;;;;;;;12.52;8.35;;;;;;;0.56;70.50;99172.06;684285;28;22393;-62
2021/01/30 00:20:00;;;;;;;12.68;7.93;;;;;;;0.56;70.32;99168.56;683423;28;44061;-62
2021/01/30 00:20:23;;;;;;;11.30;7.93;;;;;;;0.57;70.32;99170.25;683329;28;45864;-62
2021/01/30 00:20:44;;;;;;;11.70;7.75;;;;;;;0.56;70.31;99174.72;683085;28;44164;-63
2021/01/30 00:21:05;;;;;;;13.15;8.07;;;;;;;0.56;70.46;99164.09;684148;28;23567;-62
2021/01/30 00:21:27;;;;;;;12.75;7.82;;;;;;;0.56;70.41;99172.06;684092;28;23454;-63
2021/01/30 00:21:51;;;;;;;11.43;7.80;;;;;;;0.58;70.46;99169.25;683741;28;42652;-64
2021/01/30 00:22:14;;;;;;;11.45;7.90;;;;;;;0.60;70.47;99169.94;682083;28;84872;-63
2021/01/30 00:22:35;;;;;;;13.02;8.13;;;;;;;0.59;70.30;99173.59;682626;28;67499;-63
2021/01/30 00:22:57;;;;;;;11.98;7.72;;;;;;;0.59;70.21;99169.09;683688;28;21536;-64
2021/01/30 00:23:18;;;;;;;11.30;7.97;;;;;;;0.59;70.34;99177.06;683332;28;40206;-62
2021/01/30 00:23:40;;;;;;;10.18;7.68;;;;;;;0.58;70.28;99175.41;683698;28;43466;-63
2021/01/30 00:24:01;;;;;;;10.45;7.53;;;;;;;0.58;70.42;99171.91;684495;28;22409;-64
2021/01/30 00:24:23;;;;;;;10.07;7.60;;;;;;;0.58;70.19;99170.09;684407;28;22388;-63
2021/01/30 00:24:46;;;;;;;10.07;7.43;;;;;;;0.58;70.16;99170.09;683482;28;44391;-64
2021/01/30 00:25:08;;;;;;;10.93;7.40;;;;;;;0.57;70.20;99172.91;682556;28;71788;-63
2021/01/30 00:25:31;;;;;;;10.65;7.55;;;;;;;0.57;70.23;99171.09;683231;28;47540;-62
2021/01/30 00:25:53;;;;;;;10.55;7.35;;;;;;;0.57;70.20;99175.56;681809;28;92347;-64
2021/01/30 00:26:14;;;;;;;10.70;7.38;;;;;;;0.57;70.20;99167.59;683367;28;46684;-63
2021/01/30 00:26:35;;;;;;;10.65;7.68;;;;;;;0.56;70.21;99174.72;684390;28;22419;-61
2021/01/30 00:26:58;;;;;;;10.80;7.43;;;;;;;0.57;70.20;99171.09;684214;28;21557;-62
2021/01/30 00:27:21;;;;;;;10.50;7.27;;;;;;;0.57;70.23;99168.44;682106;28;91611;-63
2021/01/30 00:27:43;;;;;;;10.77;7.40;;;;;;;0.56;70.24;99166.75;682488;28;67556;-63
2021/01/30 00:28:05;;;;;;;12.40;7.68;;;;;;;0.56;70.24;99169.41;683644;28;44570;-63
2021/01/30 00:28:26;;;;;;;11.55;7.20;;;;;;;0.56;70.31;99169.41;682508;28;68363;-62
2021/01/30 00:28:48;;;;;;;12.57;7.70;;;;;;;0.54;70.29;99163.41;684775;28;14099;-63
2021/01/30 00:29:13;;;;;;;12.20;7.40;;;;;;;0.53;70.17;99164.38;683393;28;69444;-63
2021/01/30 00:29:34;;;;;;;11.75;7.40;;;;;;;0.53;70.31;99165.25;682331;28;69599;-63
2021/01/30 00:29:55;;;;;;;11.00;7.55;;;;;;;0.51;70.42;99166.38;684506;28;21547;-61
2021/01/30 00:30:20;;;;;;;11.40;7.70;;;;;;;0.50;70.32;99160.22;683379;28;44509;-63
2021/01/30 00:30:41;;;;;;;12.00;7.40;;;;;;;0.51;70.32;99163.72;682256;28;75183;-64
2021/01/30 00:31:02;;;;;;;11.23;7.63;;;;;;;0.50;70.43;99168.19;683272;28;46122;-63
2021/01/30 00:31:23;;;;;;;11.60;7.78;;;;;;;0.51;70.35;99169.84;684168;28;22406;-62
2021/01/30 00:31:45;;;;;;;11.85;8.10;;;;;;;0.51;70.35;99163.72;683717;28;21561;-63
2021/01/30 00:32:07;;;;;;;12.02;8.07;;;;;;;0.52;70.39;99166.22;684303;28;22396;-63
2021/01/30 00:32:28;;;;;;;12.15;8.18;;;;;;;0.52;70.38;99174.19;683558;28;46015;-63
2021/01/30 00:32:50;;;;;;;11.35;7.85;;;;;;;0.51;70.43;99172.50;683213;28;44393;-60
2021/01/30 00:33:11;;;;;;;12.25;7.32;;;;;;;0.51;70.44;99167.19;683909;28;22490;-64
2021/01/30 00:33:32;;;;;;;10.43;7.13;;;;;;;0.52;70.33;99170.72;684128;28;21525;-62
2021/01/30 00:33:54;;;;;;;10.43;7.35;;;;;;;0.51;70.34;99172.50;684146;28;23502;-64
2021/01/30 00:34:16;;;;;;;10.23;7.55;;;;;;;0.51;70.38;99172.50;683390;28;44394;-63
2021/01/30 00:34:39;;;;;;;9.25;7.45;;;;;;;0.52;70.56;99168.88;682796;28;46284;-61
2021/01/30 00:35:00;;;;;;;10.30;7.57;;;;;;;0.52;70.46;99173.38;682069;28;70281;-62
2021/01/30 00:35:23;;;;;;;10.98;7.75;;;;;;;0.52;70.33;99170.72;682724;28;45260;-63
2021/01/30 00:35:44;;;;;;;11.73;7.82;;;;;;;0.53;70.29;99169.69;683321;28;46429;-62
2021/01/30 00:36:05;;;;;;;10.65;7.57;;;;;;;0.53;70.37;99169.69;683340;28;46179;-63
2021/01/30 00:36:28;;;;;;;10.75;7.68;;;;;;;0.52;70.38;99174.19;684141;28;18660;-63
2021/01/30 00:36:49;;;;;;;11.02;7.40;;;;;;;0.52;70.41;99171.53;683550;28;40069;-63
2021/01/30 00:37:13;;;;;;;11.95;7.80;;;;;;;0.53;70.51;99167.03;684214;28;22498;-64
2021/01/30 00:37:35;;;;;;;10.20;7.38;;;;;;;0.53;70.34;99165.25;680962;28;116541;-63
2021/01/30 00:38:00;;;;;;;10.93;8.20;;;;;;;0.54;70.37;99171.38;681303;28;116040;-62
2021/01/30 00:38:22;;;;;;;11.13;7.75;;;;;;;0.54;70.42;99171.38;683568;28;44387;-62
2021/01/30 00:38:43;;;;;;;11.20;7.90;;;;;;;0.54;70.40;99166.88;684689;28;10552;-63
2021/01/30 00:39:04;;;;;;;10.57;7.67;;;;;;;0.54;70.42;99176.69;684333;28;21591;-63
2021/01/30 00:39:25;;;;;;;10.88;7.85;;;;;;;0.53;70.23;99167.03;683633;28;46553;-62
2021/01/30 00:39:47;;;;;;;11.32;7.57;;;;;;;0.50;70.27;99176.16;684837;28;7236;-64
2021/01/30 00:40:10;;;;;;;9.98;7.63;;;;;;;0.49;70.20;99171.00;684257;28;22890;-64
2021/01/30 00:40:32;;;;;;;9.02;7.35;;;;;;;0.48;70.31;99170.16;682702;28;67653;-64
2021/01/30 00:40:53;;;;;;;10.07;7.40;;;;;;;0.51;70.32;99179.66;684268;28;21609;-63
2021/01/30 00:41:14;;;;;;;10.60;7.82;;;;;;;0.49;70.27;99176.31;684022;28;22343;-61
2021/01/30 00:41:35;;;;;;;11.38;8.25;;;;;;;0.50;70.35;99180.63;683989;28;22494;-64
2021/01/30 00:41:57;;;;;;;12.45;8.13;;;;;;;0.49;70.26;99173.66;683666;28;32637;-63
2021/01/30 00:42:20;;;;;;;13.02;8.13;;;;;;;0.51;70.33;99174.34;683862;28;23508;-62
2021/01/30 00:42:41;;;;;;;12.65;7.93;;;;;;;0.50;70.28;99176.16;681798;28;79458;-63
2021/01/30 00:43:03;;;;;;;12.55;7.80;;;;;;;0.50;70.46;99177.97;683784;28;4462;-63
2021/01/30 00:43:24;;;;;;;12.57;8.07;;;;;;;0.51;70.36;99182.31;683906;28;22396;-61
2021/01/30 00:43:46;;;;;;;11.77;7.68;;;;;;;0.49;70.51;99181.63;684684;28;1300;-63
2021/01/30 00:44:07;;;;;;;11.32;8.05;;;;;;;0.48;70.53;99174.63;683822;28;22354;-63
2021/01/30 00:44:29;;;;;;;11.13;7.97;;;;;;;0.48;70.33;99174.63;684410;28;22374;-61
2021/01/30 00:44:52;;;;;;;11.23;7.93;;;;;;;0.47;70.15;99179.13;682169;28;69463;-64
2021/01/30 00:45:15;;;;;;;11.43;8.15;;;;;;;0.47;70.32;99181.78;683190;28;46423;-63
2021/01/30 00:45:36;;;;;;;11.32;8.60;;;;;;;0.47;70.39;99172.97;684135;28;92045;-63
2021/01/30 00:45:58;;;;;;;11.55;8.02;;;;;;;0.49;70.53;99181.63;686892;28;21395;-62
2021/01/30 00:46:19;;;;;;;11.70;7.70;;;;;;;0.48;70.48;99178.13;685962;28;46339;-63
2021/01/30 00:46:41;;;;;;;11.63;7.90;;;;;;;0.47;70.34;99178.28;684295;28;21530;-64
2021/01/30 00:47:02;;;;;;;11.55;8.45;;;;;;;0.47;70.48;99178.28;684272;28;23816;-63
2021/01/30 00:47:24;;;;;;;11.38;7.97;;;;;;;0.48;70.54;99180.78;683002;28;45258;-63
2021/01/30 00:47:45;;;;;;;11.85;8.30;;;;;;;0.45;70.64;99172.28;683091;28;44399;-64
2021/01/30 00:48:07;;;;;;;12.98;8.40;;;;;;;0.48;70.54;99180.78;680375;29;46439;-64
2021/01/30 00:48:28;;;;;;;12.70;8.52;;;;;;;0.46;70.65;99184.59;681117;28;22358;-62
2021/01/30 00:48:50;;;;;;;14.40;8.45;;;;;;;0.46;70.60;99181.94;681403;29;23432;-63
2021/01/30 00:49:11;;;;;;;12.90;8.57;;;;;;;0.44;70.71;99184.75;678301;29;47058;-64
2021/01/30 00:49:32;;;;;;;13.32;8.98;;;;;;;0.45;70.66;99186.38;679316;29;22395;-62
2021/01/30 00:49:55;;;;;;;11.55;8.48;;;;;;;0.45;70.60;99181.06;681024;28;45285;-61
2021/01/30 00:50:18;;;;;;;11.45;8.23;;;;;;;0.46;70.69;99177.44;683273;28;46365;-62
2021/01/30 00:50:40;;;;;;;11.55;8.23;;;;;;;0.46;70.48;99180.09;679721;29;69810;-62
2021/01/30 00:51:01;;;;;;;13.57;8.32;;;;;;;0.45;70.76;99190.88;678825;29;44360;-64
2021/01/30 00:51:22;;;;;;;15.73;8.73;;;;;;;0.43;70.66;99185.72;676301;29;21957;-61
2021/01/30 00:51:48;;;;;;;14.45;8.27;;;;;;;0.44;70.68;99186.53;670743;29;136739;-61
2021/01/30 00:52:10;;;;;;;13.23;8.73;;;;;;;0.44;70.61;99178.56;675394;29;911;-61
2021/01/30 00:52:33;;;;;;;12.38;8.48;;;;;;;0.44;70.61;99183.88;674184;29;16708;-61
2021/01/30 00:53:06;;;;;;;13.88;8.63;;;;;;;0.41;70.58;99178.88;670622;29;103189;-63
2021/01/30 00:53:33;;;;;;;13.40;8.93;;;;;;;0.41;70.73;99184.19;671450;29;138034;-63
2021/01/30 00:53:54;;;;;;;11.52;8.60;;;;;;;0.40;70.74;99185.19;679230;29;17160;-62
2021/01/30 00:54:17;;;;;;;12.63;8.68;;;;;;;0.40;70.67;99187.84;679867;29;950;-63
2021/01/30 00:54:39;;;;;;;14.55;9.13;;;;;;;0.42;70.98;99183.22;678005;29;44429;-63
2021/01/30 00:55:01;;;;;;;15.10;8.95;;;;;;;0.42;70.80;99180.56;678309;29;36331;-63
2021/01/30 00:55:23;;;;;;;12.30;8.68;;;;;;;0.41;70.93;99179.72;679543;29;21521;-61
2021/01/30 00:55:48;;;;;;;15.25;8.93;;;;;;;0.42;70.81;99193.84;677676;29;115114;-63
2021/01/30 00:56:11;;;;;;;13.48;8.55;;;;;;;0.42;70.81;99183.22;679754;29;69988;-61
2021/01/30 00:56:32;;;;;;;11.27;8.48;;;;;;;0.41;70.81;99185.03;680904;28;46304;-64
2021/01/30 00:56:54;;;;;;;12.43;8.63;;;;;;;0.41;70.84;99186.84;682777;28;21522;-63
2021/01/30 00:57:19;;;;;;;13.98;8.75;;;;;;;0.41;70.86;99187.69;674552;29;136333;-62
2021/01/30 00:57:41;;;;;;;14.10;8.70;;;;;;;0.42;70.63;99185.88;675761;29;46291;-64
2021/01/30 00:58:03;;;;;;;13.80;8.80;;;;;;;0.41;70.63;99185.03;675119;29;23301;-61
2021/01/30 00:58:28;;;;;;;14.30;8.88;;;;;;;0.42;70.73;99188.53;671204;29;138954;-63
2021/01/30 00:58:50;;;;;;;15.25;8.43;;;;;;;0.42;70.89;99185.88;676983;29;43182;-64
2021/01/30 00:59:12;;;;;;;13.02;8.60;;;;;;;0.42;70.91;99191.19;680818;28;31357;-64
2021/01/30 00:59:33;;;;;;;13.98;9.13;;;;;;;0.41;70.78;99182.38;681748;28;46414;-63
2021/01/30 00:59:55;;;;;;;14.23;8.88;;;;;;;0.42;70.62;99185.88;684053;28;22501;-64
2021/01/30 01:00:20;;;;;;;11.82;8.68;;;;;;;0.43;70.62;99187.53;684776;28;1209;-63
2021/01/30 01:00:42;;;;;;;14.15;8.80;;;;;;;0.42;70.71;99180.56;678085;29;104921;-63
2021/01/30 01:01:11;;;;;;;13.65;9.10;;;;;;;0.39;70.82;99186.97;677373;29;138662;-63
2021/01/30 01:01:37;;;;;;;12.52;8.60;;;;;;;0.39;70.97;99188.81;680714;28;131181;-63
2021/01/30 01:02:02;;;;;;;13.18;8.48;;;;;;;0.38;70.73;99190.66;680908;28;113196;-59
2021/01/30 01:02:31;;;;;;;13.88;9.02;;;;;;;0.37;70.99;99193.44;676592;29;160884;-63
2021/01/30 01:02:53;;;;;;;12.75;8.75;;;;;;;0.36;71.01;99189.94;677329;29;46327;-61
2021/01/30 01:03:18;;;;;;;12.80;9.40;;;;;;;0.38;70.92;99200.41;675474;29;115471;-63
2021/01/30 01:03:57;;;;;;;12.48;9.02;;;;;;;0.39;70.90;99196.78;676449;29;130508;-63
2021/01/30 01:04:19;;;;;;;13.98;8.75;;;;;;;0.38;70.98;99195.09;681542;28;24464;-62
2021/01/30 01:04:42;;;;;;;13.75;9.27;;;;;;;0.36;71.02;99195.25;682952;28;46266;-62
2021/01/30 01:05:06;;;;;;;13.13;8.52;;;;;;;0.35;71.06;99191.78;683628;28;92118;-63
2021/01/30 01:05:28;;;;;;;13.13;8.73;;;;;;;0.38;71.04;99195.97;682119;28;69198;-63
2021/01/30 01:05:49;;;;;;;12.25;8.60;;;;;;;0.38;71.05;99190.66;683331;28;46426;-62
2021/01/30 01:06:10;;;;;;;13.85;8.70;;;;;;;0.37;71.00;99191.63;684170;28;22270;-63
2021/01/30 01:06:31;;;;;;;15.43;9.32;;;;;;;0.38;70.94;99195.97;684167;28;22404;-62
2021/01/30 01:06:53;;;;;;;13.05;8.65;;;;;;;0.36;70.89;99187.28;683577;28;46171;-63
2021/01/30 01:07:14;;;;;;;14.65;8.73;;;;;;;0.35;71.06;99186.47;684414;28;23495;-63
2021/01/30 01:07:35;;;;;;;15.13;8.65;;;;;;;0.35;71.14;99189.13;683543;28;45609;-63
2021/01/30 01:07:57;;;;;;;14.65;9.40;;;;;;;0.36;71.09;99181.97;684179;28;17549;-62
2021/01/30 01:08:18;;;;;;;14.40;9.20;;;;;;;0.35;71.03;99189.13;684235;28;15547;-63
2021/01/30 01:08:40;;;;;;;14.57;9.10;;;;;;;0.35;71.29;99181.16;684198;28;23486;-63
2021/01/30 01:09:03;;;;;;;12.18;8.55;;;;;;;0.36;71.33;99187.28;683492;28;45244;-63
2021/01/30 01:09:24;;;;;;;14.38;8.90;;;;;;;0.35;71.33;99186.47;682233;28;69533;-63
2021/01/30 01:09:45;;;;;;;14.95;9.10;;;;;;;0.34;71.37;99187.44;684174;28;23576;-62
2021/01/30 01:10:07;;;;;;;14.73;9.23;;;;;;;0.35;71.34;99185.63;684189;28;19686;-63
2021/01/30 01:10:28;;;;;;;13.50;9.07;;;;;;;0.36;71.34;99195.25;683745;28;30290;-63
2021/01/30 01:10:49;;;;;;;14.13;9.07;;;;;;;0.37;71.45;99190.81;684186;28;22405;-63
2021/01/30 01:11:11;;;;;;;13.65;8.57;;;;;;;0.39;71.39;99194.13;684295;28;16620;-63
2021/01/30 01:11:32;;;;;;;13.18;8.63;;;;;;;0.39;71.47;99191.47;684158;28;22733;-63
2021/01/30 01:11:54;;;;;;;12.98;8.60;;;;;;;0.38;71.47;99187.13;684129;28;23356;-61
2021/01/30 01:12:15;;;;;;;15.38;9.50;;;;;;;0.39;71.60;99188.81;683244;28;44337;-62
2021/01/30 01:12:36;;;;;;;12.57;9.15;;;;;;;0.38;71.44;99188.00;684020;28;22383;-63
2021/01/30 01:12:57;;;;;;;14.93;8.70;;;;;;;0.38;71.32;99190.66;683484;28;23878;-61
2021/01/30 01:13:19;;;;;;;13.48;9.10;;;;;;;0.39;71.42;99192.31;683826;28;22418;-64
2021/01/30 01:13:40;;;;;;;12.15;8.60;;;;;;;0.40;71.44;99196.63;683215;28;46406;-63
2021/01/30 01:14:01;;;;;;;12.25;8.80;;;;;;;0.39;71.28;99192.31;684171;28;23526;-63
2021/01/30 01:14:24;;;;;;;12.35;8.90;;;;;;;0.38;71.66;99195.97;683983;28;22396;-63
2021/01/30 01:14:45;;;;;;;15.70;9.32;;;;;;;0.38;71.21;99187.13;682440;28;69513;-63
2021/01/30 01:15:10;;;;;;;14.52;8.38;;;;;;;0.39;71.21;99186.97;683259;28;13129;-63
2021/01/30 01:15:31;;;;;;;12.00;7.82;;;;;;;0.40;71.29;99187.84;680921;28;113771;-62
2021/01/30 01:15:52;;;;;;;11.57;8.23;;;;;;;0.41;71.14;99192.16;684227;28;21468;-63
2021/01/30 01:16:13;;;;;;;12.48;8.15;;;;;;;0.40;71.18;99198.47;684036;28;21543;-63
2021/01/30 01:16:35;;;;;;;10.38;7.90;;;;;;;0.39;71.10;99196.78;684041;28;22410;-62
2021/01/30 01:16:56;;;;;;;11.10;7.97;;;;;;;0.39;71.19;99192.31;683414;28;46317;-64
2021/01/30 01:17:17;;;;;;;13.32;8.95;;;;;;;0.38;71.25;99190.66;684352;28;22401;-63
2021/01/30 01:17:38;;;;;;;12.60;8.48;;;;;;;0.40;71.14;99195.81;684269;28;22409;-63
2021/01/30 01:18:00;;;;;;;11.80;8.60;;;;;;;0.40;71.16;99193.16;684648;28;16603;-63
2021/01/30 01:18:21;;;;;;;13.27;8.73;;;;;;;0.39;71.33;99194.13;684644;28;838;-61
2021/01/30 01:18:42;;;;;;;11.88;8.38;;;;;;;0.37;71.23;99204.06;683975;28;21622;-63
2021/01/30 01:19:04;;;;;;;12.30;8.40;;;;;;;0.38;71.33;99195.09;684801;28;4331;-63
2021/01/30 01:19:25;;;;;;;14.25;8.30;;;;;;;0.38;71.26;99200.41;683294;28;45336;-62
2021/01/30 01:19:46;;;;;;;14.00;8.25;;;;;;;0.36;71.34;99203.22;684528;28;17836;-63
2021/01/30 01:20:13;;;;;;;13.60;8.80;;;;;;;0.37;71.29;99194.28;684330;28;23474;-63
2021/01/30 01:20:34;;;;;;;13.50;8.38;;;;;;;0.39;71.36;99200.25;679984;28;138191;-62
2021/01/30 01:20:57;;;;;;;14.90;8.77;;;;;;;0.37;71.09;99196.94;684819;28;10685;-63
2021/01/30 01:21:18;;;;;;;12.43;8.77;;;;;;;0.38;71.14;99198.63;682499;28;68371;-64
2021/01/30 01:21:39;;;;;;;12.98;8.50;;;;;;;0.38;71.22;99203.94;684367;28;22020;-63
2021/01/30 01:22:01;;;;;;;13.23;8.18;;;;;;;0.40;71.14;99201.13;683158;28;45273;-63
2021/01/30 01:22:22;;;;;;;12.65;8.15;;;;;;;0.38;71.19;99201.28;684083;28;23513;-63
2021/01/30 01:22:43;;;;;;;14.93;8.50;;;;;;;0.39;71.25;99199.44;684181;28;22414;-62
2021/01/30 01:23:05;;;;;;;14.65;8.68;;;;;;;0.39;71.21;99196.78;684012;28;19299;-62
2021/01/30 01:23:26;;;;;;;13.43;8.25;;;;;;;0.38;71.09;99195.97;683549;28;45014;-63
2021/01/30 01:23:47;;;;;;;14.40;8.55;;;;;;;0.39;71.25;99197.63;684491;28;21063;-61
2021/01/30 01:24:09;;;;;;;13.88;9.15;;;;;;;0.39;71.17;99199.44;683906;28;37343;-63
2021/01/30 01:24:30;;;;;;;13.85;9.00;;;;;;;0.39;71.04;99196.78;683245;28;46419;-63
2021/01/30 01:24:52;;;;;;;14.18;8.93;;;;;;;0.38;71.13;99201.28;684213;28;19301;-62
2021/01/30 01:25:14;;;;;;;13.60;8.70;;;;;;;0.39;71.27;99199.44;683957;28;22372;-61
2021/01/30 01:25:36;;;;;;;14.65;8.50;;;;;;;0.39;71.25;99196.78;684797;28;926;-63
2021/01/30 01:26:05;;;;;;;10.98;8.20;;;;;;;0.37;71.03;99198.75;683016;28;60676;-63
2021/01/30 01:26:27;;;;;;;12.20;8.70;;;;;;;0.37;71.01;99193.44;684257;28;23527;-63
2021/01/30 01:26:49;;;;;;;14.48;8.98;;;;;;;0.38;70.93;99195.97;683343;28;46443;-63
2021/01/30 01:27:11;;;;;;;13.32;8.85;;;;;;;0.39;71.10;99202.91;683445;28;41717;-63
2021/01/30 01:27:32;;;;;;;11.55;8.07;;;;;;;0.39;71.17;99194.97;684605;28;15147;-63
2021/01/30 01:27:53;;;;;;;13.45;8.18;;;;;;;0.40;71.10;99193.16;684388;28;22394;-62
2021/01/30 01:28:14;;;;;;;13.48;8.32;;;;;;;0.39;71.09;99192.31;683009;28;46338;-63
2021/01/30 01:28:36;;;;;;;14.68;9.07;;;;;;;0.40;71.14;99190.50;684986;28;4969;-62
2021/01/30 01:28:57;;;;;;;13.45;9.35;;;;;;;0.41;70.88;99186.84;684393;28;17118;-63
2021/01/30 01:29:21;;;;;;;15.32;9.20;;;;;;;0.39;70.66;99191.47;683352;28;43524;-62
2021/01/30 01:29:43;;;;;;;13.55;8.65;;;;;;;0.39;70.96;99194.13;682803;28;59702;-63
2021/01/30 01:30:05;;;;;;;13.85;8.77;;;;;;;0.38;70.93;99195.97;683235;28;44449;-62
2021/01/30 01:30:27;;;;;;;13.13;8.23;;;;;;;0.39;71.02;99196.78;682308;28;68998;-63
2021/01/30 01:30:48;;;;;;;13.15;8.30;;;;;;;0.37;70.83;99194.28;683202;28;44371;-63
2021/01/30 01:31:10;;;;;;;13.98;8.88;;;;;;;0.38;70.93;99195.09;684019;28;22492;-62
2021/01/30 01:31:32;;;;;;;13.40;8.48;;;;;;;0.38;70.95;99190.66;683342;28;45332;-63
2021/01/30 01:31:55;;;;;;;12.98;8.52;;;;;;;0.37;70.81;99191.63;684192;28;22424;-63
2021/01/30 01:32:16;;;;;;;11.65;8.13;;;;;;;0.37;70.97;99190.81;681652;28;92370;-62
2021/01/30 01:32:37;;;;;;;11.38;8.52;;;;;;;0.35;71.01;99191.78;683416;28;46339;-61
2021/01/30 01:32:59;;;;;;;12.23;8.50;;;;;;;0.34;70.88;99192.75;683594;28;22407;-63
2021/01/30 01:33:20;;;;;;;13.43;8.55;;;;;;;0.34;70.86;99192.75;686610;28;22387;-62
2021/01/30 01:33:41;;;;;;;12.65;8.60;;;;;;;0.34;70.82;99191.91;686665;28;23463;-64
2021/01/30 01:34:02;;;;;;;14.77;8.70;;;;;;;0.34;70.84;99194.56;686038;28;46406;-63
2021/01/30 01:34:26;;;;;;;15.07;8.73;;;;;;;0.33;71.02;99192.94;686699;28;23069;-61
2021/01/30 01:34:47;;;;;;;14.25;9.00;;;;;;;0.31;70.86;99195.72;684258;28;69416;-63
2021/01/30 01:35:12;;;;;;;14.35;9.02;;;;;;;0.29;70.81;99191.53;684108;28;21432;-62
2021/01/30 01:35:34;;;;;;;13.48;8.90;;;;;;;0.29;70.87;99194.19;680004;28;136789;-62
2021/01/30 01:35:56;;;;;;;13.73;8.85;;;;;;;0.29;70.99;99194.19;683382;28;44037;-61
2021/01/30 01:36:20;;;;;;;14.38;8.88;;;;;;;0.29;71.02;99197.69;684059;28;21544;-62
2021/01/30 01:36:41;;;;;;;12.85;8.52;;;;;;;0.31;71.06;99195.72;681549;28;90699;-63
2021/01/30 01:37:05;;;;;;;15.05;9.15;;;;;;;0.31;70.99;99192.22;684257;28;23160;-61
2021/01/30 01:37:26;;;;;;;14.45;9.20;;;;;;;0.31;71.12;99194.88;680890;28;115335;-62
2021/01/30 01:37:50;;;;;;;13.70;9.32;;;;;;;0.31;71.32;99193.06;684348;28;23474;-62
2021/01/30 01:38:11;;;;;;;14.05;9.15;;;;;;;0.31;71.29;99193.06;681879;28;90618;-62
2021/01/30 01:38:33;;;;;;;14.40;9.48;;;;;;;0.32;71.08;99191.25;684226;28;21300;-62
2021/01/30 01:38:54;;;;;;;15.00;9.35;;;;;;;0.32;71.06;99193.91;684129;28;33207;-62
2021/01/30 01:39:15;;;;;;;15.70;9.50;;;;;;;0.32;71.04;99196.56;684341;28;21542;-63
2021/01/30 01:39:36;;;;;;;14.48;9.35;;;;;;;0.31;71.12;99192.22;685082;28;946;-63
2021/01/30 01:39:58;;;;;;;13.05;9.05;;;;;;;0.32;70.95;99186.75;684067;28;21699;-62
2021/01/30 01:40:22;;;;;;;14.68;9.23;;;;;;;0.29;70.80;99187.06;683380;28;44357;-63
2021/01/30 01:40:43;;;;;;;14.43;9.40;;;;;;;0.32;71.07;99191.25;681333;28;93256;-62
2021/01/30 01:41:04;;;;;;;13.18;8.57;;;;;;;0.32;70.94;99183.28;684357;28;22466;-62
2021/01/30 01:41:26;;;;;;;13.05;8.70;;;;;;;0.31;70.97;99189.56;684118;28;23410;-63
2021/01/30 01:41:54;;;;;;;13.70;8.80;;;;;;;0.31;70.91;99195.72;684144;28;22346;-63
2021/01/30 01:42:18;;;;;;;13.30;8.88;;;;;;;0.31;70.90;99192.22;679967;28;138598;-63
2021/01/30 01:42:39;;;;;;;13.65;8.85;;;;;;;0.32;71.08;99188.59;681983;28;91274;-63
2021/01/30 01:43:04;;;;;;;12.05;8.43;;;;;;;0.32;70.77;99197.38;683933;28;13548;-62
2021/01/30 01:43:27;;;;;;;13.40;9.05;;;;;;;0.32;71.02;99193.91;680734;28;115212;-61
2021/01/30 01:43:50;;;;;;;13.55;9.18;;;;;;;0.32;71.03;99199.22;682829;28;67372;-61
2021/01/30 01:44:11;;;;;;;12.82;8.48;;;;;;;0.32;70.94;99196.56;682139;28;67490;-63
2021/01/30 01:44:32;;;;;;;14.52;8.85;;;;;;;0.31;71.14;99195.72;684449;28;23441;-61
2021/01/30 01:44:54;;;;;;;14.38;8.85;;;;;;;0.32;71.09;99194.72;684336;28;22405;-62
2021/01/30 01:45:16;;;;;;;13.90;8.77;;;;;;;0.33;71.30;99201.72;682958;28;46290;-63
2021/01/30 01:45:37;;;;;;;12.30;8.60;;;;;;;0.33;70.93;99190.28;683110;28;44543;-62